Ext Vistas de Luquillo, Puerto Rico
Current Conditions -  °F | °C
As of 2:03 AM on Thursday 23 Oct 2014 (Local Time) from TJNR Reporting Station
Broken Clouds Broken Clouds  
Wind Chill: 78°   Ceiling: 2400
Heat Index: 81°   Visibility: 10mi
Dew Point: 74°   Wind: 13mph
Humidity: 87%   Direction: 160°SSE
Pressure: 29.95"   Gusts: NA
Location:  18.3744°N, 65.7168°W
Report Text: TJNR 230603Z AUTO 16011KT 10SM SCT016 BKN024 BKN031 26/23 A2995 RMK AO2 T02560233
Loading
Personal Weather Stations






























Interactive Weather Map
Tropical Storm Tracking
New forecast layout! Learn more

10-Day Weather Forecast

Advertisements
Track Severe Weather on mobile